Time;durP1;ratioP1;P1;durP2;ratioP2;P2;SDS_P1;SDS_P2;PMS_P1;PMS_P2;Temp;Humidity;BMP_temperature;BMP_pressure;BME280_temperature;BME280_humidity;BME280_pressure;Samples;Min_cycle;Max_cycle;Signal;HPM_P1;HPM_P2
2023/10/05 00:00:37;;;;;;;;;;;20.80;68.50;;;;;;5047829;28;1378;-72
2023/10/05 00:03:05;;;;;;;;;;;20.70;68.40;;;;;;5047917;28;1235;-72
2023/10/05 00:05:35;;;;;;;;;;;20.80;68.50;;;;;;5049156;28;1902;-72
2023/10/05 00:08:02;;;;;;;;;;;20.70;68.40;;;;;;5031158;28;1538;-72
2023/10/05 00:10:28;;;;;;;;;;;20.80;68.60;;;;;;5028305;28;1416;-71
2023/10/05 00:12:55;;;;;;;;;;;20.70;68.50;;;;;;5052826;28;1251;-72
2023/10/05 00:15:23;;;;;;;;;;;20.70;68.50;;;;;;5043417;28;1459;-72
2023/10/05 00:30:07;;;;;;;;;;;20.70;68.60;;;;;;5052773;28;1315;-71
2023/10/05 00:32:37;;;;;;;;;;;20.80;68.70;;;;;;5049587;28;1642;-72
2023/10/05 00:37:37;;;;;;;;;;;20.80;68.80;;;;;;5039101;28;1362;-71
2023/10/05 00:40:05;;;;;;;;;;;20.70;68.70;;;;;;5050051;28;1236;-72
2023/10/05 00:42:30;;;;;;;;;;;20.70;68.70;;;;;;5045033;28;1180;-72
2023/10/05 00:45:00;;;;;;;;;;;20.80;68.80;;;;;;5036090;28;1898;-72
2023/10/05 00:47:27;;;;;;;;;;;20.70;68.70;;;;;;5050133;28;1687;-72
2023/10/05 00:49:53;;;;;;;;;;;20.70;68.70;;;;;;5032057;28;1320;-71
2023/10/05 00:52:24;;;;;;;;;;;20.80;68.90;;;;;;5023722;28;1346;-72
2023/10/05 00:54:51;;;;;;;;;;;20.70;68.80;;;;;;5042960;28;1509;-72
2023/10/05 00:57:19;;;;;;;;;;;20.80;68.80;;;;;;5033149;28;1481;-72
2023/10/05 00:59:48;;;;;;;;;;;20.70;68.80;;;;;;5025868;28;1502;-72
2023/10/05 01:02:14;;;;;;;;;;;20.70;68.80;;;;;;5047060;28;1388;-73
2023/10/05 01:07:26;;;;;;;;;;;20.80;68.90;;;;;;5033273;28;1394;-72
2023/10/05 01:14:56;;;;;;;;;;;20.80;68.90;;;;;;5052890;28;1392;-72
2023/10/05 01:17:25;;;;;;;;;;;20.70;68.90;;;;;;5041159;28;1394;-72
2023/10/05 01:19:56;;;;;;;;;;;20.80;68.90;;;;;;5031463;28;1179;-71
2023/10/05 01:22:32;;;;;;;;;;;20.70;68.90;;;;;;5042954;28;891;-71
2023/10/05 01:24:59;;;;;;;;;;;20.80;68.90;;;;;;5042609;28;1965;-71
2023/10/05 01:27:29;;;;;;;;;;;20.80;68.90;;;;;;5037779;28;1387;-72
2023/10/05 01:29:58;;;;;;;;;;;20.70;68.90;;;;;;5053547;28;855;-73
2023/10/05 01:32:24;;;;;;;;;;;20.80;69.00;;;;;;5044147;28;1371;-72
2023/10/05 01:34:50;;;;;;;;;;;20.70;68.90;;;;;;5043730;28;960;-72
2023/10/05 01:37:22;;;;;;;;;;;20.80;68.90;;;;;;5050846;28;1256;-72
2023/10/05 01:39:48;;;;;;;;;;;20.70;68.90;;;;;;5049479;28;1137;-72
2023/10/05 01:42:14;;;;;;;;;;;20.70;69.00;;;;;;5054595;28;1433;-73
2023/10/05 01:44:47;;;;;;;;;;;20.70;68.90;;;;;;5020829;28;1953;-72
2023/10/05 01:47:16;;;;;;;;;;;20.70;68.90;;;;;;5034225;28;2109;-72
2023/10/05 01:49:42;;;;;;;;;;;20.70;69.00;;;;;;5043791;28;1401;-72
2023/10/05 01:52:08;;;;;;;;;;;20.70;69.00;;;;;;5049904;28;1522;-72
2023/10/05 01:54:34;;;;;;;;;;;20.70;69.00;;;;;;5037156;28;1271;-72
2023/10/05 01:57:03;;;;;;;;;;;20.70;69.00;;;;;;5052837;28;1284;-72
2023/10/05 01:59:33;;;;;;;;;;;20.80;69.10;;;;;;5039220;28;1404;-72
2023/10/05 02:02:00;;;;;;;;;;;20.80;69.10;;;;;;5038348;28;1247;-72
2023/10/05 02:04:25;;;;;;;;;;;20.70;69.00;;;;;;5039452;28;1965;-72
2023/10/05 02:06:52;;;;;;;;;;;20.70;69.00;;;;;;5033168;28;1470;-71
2023/10/05 02:09:19;;;;;;;;;;;20.80;69.10;;;;;;5051006;28;1539;-72
2023/10/05 02:11:48;;;;;;;;;;;20.70;69.00;;;;;;5054795;28;1539;-72
2023/10/05 02:14:16;;;;;;;;;;;20.70;69.10;;;;;;5038758;28;2177;-72
2023/10/05 02:16:42;;;;;;;;;;;20.80;69.10;;;;;;5036957;28;1410;-73
2023/10/05 02:19:08;;;;;;;;;;;20.70;69.10;;;;;;5050400;28;1437;-72
2023/10/05 02:21:37;;;;;;;;;;;20.70;69.10;;;;;;5039029;28;1558;-72
2023/10/05 02:24:18;;;;;;;;;;;20.70;69.10;;;;;;5040811;28;1894;-72
2023/10/05 02:29:26;;;;;;;;;;;20.70;69.10;;;;;;5035202;28;1364;-71
2023/10/05 02:34:35;;;;;;;;;;;20.70;69.10;;;;;;5050001;28;1256;-72
2023/10/05 02:37:01;;;;;;;;;;;20.70;69.20;;;;;;5065227;22;3563;-64
2023/10/05 02:39:32;;;;;;;;;;;20.70;69.10;;;;;;5046434;28;1351;-66
2023/10/05 02:41:57;;;;;;;;;;;20.70;69.10;;;;;;5026598;28;1494;-66
2023/10/05 02:44:28;;;;;;;;;;;20.70;69.10;;;;;;5040895;28;1918;-66
2023/10/05 02:46:53;;;;;;;;;;;20.70;69.10;;;;;;5042891;28;1275;-66
2023/10/05 02:49:19;;;;;;;;;;;20.70;69.10;;;;;;5020473;28;1280;-66
2023/10/05 02:51:46;;;;;;;;;;;20.70;69.10;;;;;;5024825;28;1345;-66
2023/10/05 02:54:12;;;;;;;;;;;20.70;69.20;;;;;;5025370;28;1337;-66
2023/10/05 02:56:40;;;;;;;;;;;20.70;69.20;;;;;;5021253;28;1209;-66
2023/10/05 02:59:14;;;;;;;;;;;20.70;69.10;;;;;;5021312;28;1347;-66
2023/10/05 03:01:40;;;;;;;;;;;20.70;69.30;;;;;;5021861;28;1377;-66
2023/10/05 03:06:41;;;;;;;;;;;20.70;69.20;;;;;;5022890;28;1514;-66
2023/10/05 03:09:09;;;;;;;;;;;20.70;70.00;;;;;;5022712;28;1310;-66
2023/10/05 03:11:36;;;;;;;;;;;20.70;69.30;;;;;;5019754;28;1347;-65
2023/10/05 03:14:02;;;;;;;;;;;20.70;69.20;;;;;;5022815;28;1323;-66
2023/10/05 03:16:28;;;;;;;;;;;20.70;69.20;;;;;;5021278;28;1300;-66
2023/10/05 03:18:54;;;;;;;;;;;20.70;69.30;;;;;;5021716;28;1841;-66
2023/10/05 03:21:21;;;;;;;;;;;20.70;69.30;;;;;;5026860;28;1454;-66
2023/10/05 03:23:47;;;;;;;;;;;20.70;69.30;;;;;;5025349;28;1914;-65
2023/10/05 03:26:15;;;;;;;;;;;20.70;69.30;;;;;;5024687;28;1472;-65
2023/10/05 03:28:41;;;;;;;;;;;20.70;69.40;;;;;;5024891;28;1978;-66
2023/10/05 03:31:14;;;;;;;;;;;20.70;69.30;;;;;;5026443;28;1428;-66
2023/10/05 03:33:39;;;;;;;;;;;20.70;69.40;;;;;;5020965;28;1502;-66
2023/10/05 03:36:13;;;;;;;;;;;20.70;69.40;;;;;;5023924;28;1350;-66
2023/10/05 03:38:39;;;;;;;;;;;20.70;70.10;;;;;;5021811;28;1623;-66
2023/10/05 03:41:08;;;;;;;;;;;20.70;69.40;;;;;;5022661;28;1303;-66
2023/10/05 03:43:34;;;;;;;;;;;20.70;69.40;;;;;;5005118;28;1910;-65
2023/10/05 03:46:08;;;;;;;;;;;20.70;69.40;;;;;;5021453;28;1481;-66
2023/10/05 03:48:38;;;;;;;;;;;20.70;69.50;;;;;;5021558;28;1461;-64
2023/10/05 03:51:07;;;;;;;;;;;20.70;69.40;;;;;;5021379;28;1514;-65
2023/10/05 03:53:33;;;;;;;;;;;20.70;69.50;;;;;;5024529;28;1260;-66
2023/10/05 03:55:59;;;;;;;;;;;20.70;69.40;;;;;;5022186;28;1405;-66
2023/10/05 03:58:24;;;;;;;;;;;20.70;69.50;;;;;;5022286;28;1688;-66
2023/10/05 04:00:50;;;;;;;;;;;20.70;69.50;;;;;;5019750;28;1526;-66
2023/10/05 04:03:19;;;;;;;;;;;20.70;70.20;;;;;;5021620;28;1253;-66
2023/10/05 04:05:44;;;;;;;;;;;20.70;69.50;;;;;;5022171;28;1894;-66
2023/10/05 04:08:16;;;;;;;;;;;20.70;69.50;;;;;;5021696;28;1264;-65
2023/10/05 04:10:49;;;;;;;;;;;20.80;69.60;;;;;;5021145;28;1254;-66
2023/10/05 04:13:16;;;;;;;;;;;20.70;69.50;;;;;;5017950;28;1309;-66
2023/10/05 04:15:41;;;;;;;;;;;20.70;69.60;;;;;;5023479;28;1511;-66
2023/10/05 04:18:16;;;;;;;;;;;20.70;69.50;;;;;;5023497;28;1542;-66
2023/10/05 04:20:44;;;;;;;;;;;20.70;69.60;;;;;;5003872;28;1441;-66
2023/10/05 04:23:14;;;;;;;;;;;20.70;69.60;;;;;;5016798;28;1347;-66
2023/10/05 04:25:40;;;;;;;;;;;20.70;69.60;;;;;;5006987;28;1899;-66
2023/10/05 04:28:05;;;;;;;;;;;20.70;69.60;;;;;;5019690;28;1446;-66
2023/10/05 04:30:33;;;;;;;;;;;20.70;69.60;;;;;;5018548;28;1426;-66
2023/10/05 04:32:59;;;;;;;;;;;20.70;69.60;;;;;;5021846;28;1435;-66
2023/10/05 04:35:28;;;;;;;;;;;20.70;69.60;;;;;;5023329;28;1173;-66
2023/10/05 04:37:54;;;;;;;;;;;20.70;69.60;;;;;;5003689;28;1653;-66
2023/10/05 04:40:24;;;;;;;;;;;20.70;69.60;;;;;;5022875;28;927;-66
2023/10/05 04:42:51;;;;;;;;;;;20.70;69.60;;;;;;5021469;28;1002;-66
2023/10/05 04:45:17;;;;;;;;;;;20.70;69.60;;;;;;5023879;28;1960;-66
2023/10/05 04:47:42;;;;;;;;;;;20.70;69.60;;;;;;5022902;28;1476;-66
2023/10/05 04:50:11;;;;;;;;;;;20.70;69.70;;;;;;5020397;28;1532;-66
2023/10/05 04:52:37;;;;;;;;;;;20.70;69.70;;;;;;5020031;28;1417;-66
2023/10/05 04:55:23;;;;;;;;;;;20.70;69.70;;;;;;5022317;28;1369;-66
2023/10/05 04:58:15;;;;;;;;;;;20.70;69.70;;;;;;5022000;28;1463;-66
2023/10/05 05:05:53;;;;;;;;;;;20.70;69.80;;;;;;5020187;28;1944;-66
2023/10/05 05:08:18;;;;;;;;;;;20.70;70.40;;;;;;5019408;28;1441;-67
2023/10/05 05:10:44;;;;;;;;;;;20.70;69.70;;;;;;5021986;28;1246;-64
2023/10/05 05:13:10;;;;;;;;;;;20.70;69.70;;;;;;5021895;28;1457;-65
2023/10/05 05:15:38;;;;;;;;;;;20.70;69.80;;;;;;5021902;28;1259;-66
2023/10/05 05:18:04;;;;;;;;;;;20.70;69.80;;;;;;5005879;28;1311;-64
2023/10/05 05:20:29;;;;;;;;;;;20.70;69.80;;;;;;5024884;28;1357;-65
2023/10/05 05:22:55;;;;;;;;;;;20.70;69.80;;;;;;5020983;28;1371;-64
2023/10/05 05:25:20;;;;;;;;;;;20.70;69.80;;;;;;5023988;28;1902;-65
2023/10/05 05:27:46;;;;;;;;;;;20.70;69.80;;;;;;5022206;28;1251;-65
2023/10/05 05:30:23;;;;;;;;;;;20.70;69.80;;;;;;5020133;28;1695;-65
2023/10/05 05:32:50;;;;;;;;;;;20.70;69.80;;;;;;5021155;28;1121;-65
2023/10/05 05:35:16;;;;;;;;;;;20.70;69.80;;;;;;5017006;28;1128;-65
2023/10/05 05:37:42;;;;;;;;;;;20.70;69.80;;;;;;5020457;28;1310;-65
2023/10/05 05:40:13;;;;;;;;;;;20.70;69.80;;;;;;5006845;28;1405;-64
2023/10/05 05:42:39;;;;;;;;;;;20.70;69.80;;;;;;5017593;28;1247;-64
2023/10/05 05:45:10;;;;;;;;;;;20.70;69.80;;;;;;5001873;28;1958;-65
2023/10/05 05:47:35;;;;;;;;;;;20.70;69.80;;;;;;5017819;28;1435;-66
2023/10/05 05:50:02;;;;;;;;;;;20.70;69.80;;;;;;5020770;28;1248;-65
2023/10/05 05:52:28;;;;;;;;;;;20.70;69.80;;;;;;5020660;28;1449;-66
2023/10/05 05:54:53;;;;;;;;;;;20.70;69.80;;;;;;5020662;28;1318;-66
2023/10/05 05:57:20;;;;;;;;;;;20.70;69.10;;;;;;5019993;28;1749;-66
2023/10/05 05:59:45;;;;;;;;;;;20.70;69.20;;;;;;5016251;28;1617;-66
2023/10/05 06:02:11;;;;;;;;;;;20.70;69.00;;;;;;5020266;28;1434;-66
2023/10/05 06:04:40;;;;;;;;;;;20.70;68.50;;;;;;5020567;28;1929;-66
2023/10/05 06:07:13;;;;;;;;;;;20.70;67.60;;;;;;5023804;28;1257;-66
2023/10/05 06:09:50;;;;;;;;;;;20.70;67.50;;;;;;5021434;28;1286;-66
2023/10/05 06:12:16;;;;;;;;;;;20.70;67.00;;;;;;5027641;28;1319;-67
2023/10/05 06:14:41;;;;;;;;;;;20.70;66.90;;;;;;5025720;28;1240;-66
2023/10/05 06:17:07;;;;;;;;;;;20.70;66.20;;;;;;5025185;28;1469;-67
2023/10/05 06:19:33;;;;;;;;;;;20.70;66.00;;;;;;5024658;28;1200;-67
2023/10/05 06:21:58;;;;;;;;;;;20.70;65.80;;;;;;5024642;28;1311;-67
2023/10/05 06:24:24;;;;;;;;;;;20.70;65.50;;;;;;5022722;28;1906;-67
2023/10/05 06:26:50;;;;;;;;;;;20.70;65.40;;;;;;5023489;28;1138;-67
2023/10/05 06:29:15;;;;;;;;;;;20.70;65.40;;;;;;5025119;28;1283;-67
2023/10/05 06:31:41;;;;;;;;;;;20.70;65.70;;;;;;5022437;28;1252;-67
2023/10/05 06:34:09;;;;;;;;;;;20.70;65.50;;;;;;5026643;28;1419;-67
2023/10/05 06:36:42;;;;;;;;;;;20.70;65.40;;;;;;5023268;28;1530;-67
2023/10/05 06:39:09;;;;;;;;;;;20.70;65.40;;;;;;5021258;28;1509;-67
2023/10/05 06:41:34;;;;;;;;;;;20.70;65.40;;;;;;5009079;28;1251;-66
2023/10/05 06:44:01;;;;;;;;;;;20.70;65.50;;;;;;5022092;28;1980;-66
2023/10/05 06:46:27;;;;;;;;;;;20.70;65.20;;;;;;5022041;28;1488;-65
2023/10/05 06:48:52;;;;;;;;;;;20.70;65.10;;;;;;5021384;28;2075;-66
2023/10/05 06:51:22;;;;;;;;;;;20.70;65.00;;;;;;5024213;28;1213;-67
2023/10/05 06:53:47;;;;;;;;;;;20.70;64.90;;;;;;5023730;28;920;-66
2023/10/05 06:56:13;;;;;;;;;;;20.70;65.00;;;;;;5022903;28;1017;-66
2023/10/05 06:58:39;;;;;;;;;;;20.70;65.10;;;;;;5022968;28;1292;-66
2023/10/05 07:01:06;;;;;;;;;;;20.70;64.90;;;;;;5022711;28;1988;-65
2023/10/05 07:03:32;;;;;;;;;;;20.70;64.90;;;;;;5026219;28;1902;-65
2023/10/05 07:05:59;;;;;;;;;;;20.70;64.80;;;;;;5020199;28;1407;-65
2023/10/05 07:08:24;;;;;;;;;;;20.70;64.50;;;;;;5022005;28;1335;-65
2023/10/05 07:10:50;;;;;;;;;;;20.70;65.50;;;;;;5024500;28;1476;-65
2023/10/05 07:13:19;;;;;;;;;;;20.70;64.90;;;;;;5021840;28;1432;-65
2023/10/05 07:15:44;;;;;;;;;;;20.70;64.90;;;;;;5025477;28;1318;-65
2023/10/05 07:18:10;;;;;;;;;;;20.70;65.10;;;;;;5020791;28;1521;-65
2023/10/05 07:20:36;;;;;;;;;;;20.80;65.40;;;;;;5025344;28;1531;-65
2023/10/05 07:23:03;;;;;;;;;;;20.80;65.50;;;;;;5024535;28;1756;-65
2023/10/05 07:25:28;;;;;;;;;;;20.80;65.90;;;;;;5004606;28;2009;-65
2023/10/05 07:27:55;;;;;;;;;;;20.80;65.90;;;;;;5021549;28;1516;-65
2023/10/05 07:30:21;;;;;;;;;;;20.80;65.90;;;;;;5021353;28;1307;-65
2023/10/05 07:32:47;;;;;;;;;;;20.80;66.00;;;;;;5020107;28;1411;-65
2023/10/05 07:35:12;;;;;;;;;;;20.80;66.10;;;;;;5022772;28;1446;-65
2023/10/05 07:37:38;;;;;;;;;;;20.80;66.40;;;;;;5020055;28;1508;-65
2023/10/05 07:40:07;;;;;;;;;;;20.90;66.50;;;;;;5019327;28;1593;-65
2023/10/05 07:42:33;;;;;;;;;;;20.90;66.60;;;;;;5021887;28;1326;-65
2023/10/05 07:44:59;;;;;;;;;;;20.90;66.70;;;;;;5003108;28;1967;-65
2023/10/05 07:47:24;;;;;;;;;;;20.90;66.80;;;;;;5020428;28;1882;-65
2023/10/05 07:49:53;;;;;;;;;;;20.90;67.30;;;;;;5018917;28;1325;-65
2023/10/05 07:52:19;;;;;;;;;;;20.90;67.50;;;;;;5019985;28;1244;-65
2023/10/05 07:54:44;;;;;;;;;;;20.90;67.40;;;;;;5016535;28;1434;-65
2023/10/05 07:57:10;;;;;;;;;;;21.00;67.60;;;;;;5015581;28;1357;-65
2023/10/05 07:59:36;;;;;;;;;;;21.00;67.80;;;;;;5016729;28;1543;-65
2023/10/05 08:02:01;;;;;;;;;;;21.00;67.70;;;;;;5021575;28;1308;-65
2023/10/05 08:04:27;;;;;;;;;;;21.00;67.60;;;;;;5020093;28;1944;-65
2023/10/05 08:06:53;;;;;;;;;;;21.00;67.60;;;;;;5019015;28;1498;-65
2023/10/05 08:09:20;;;;;;;;;;;21.00;67.60;;;;;;5020149;28;1578;-65
2023/10/05 08:11:47;;;;;;;;;;;21.00;67.60;;;;;;5021015;28;1670;-66
2023/10/05 08:14:12;;;;;;;;;;;21.00;67.70;;;;;;5026908;28;1168;-65
2023/10/05 08:16:38;;;;;;;;;;;21.00;67.70;;;;;;5022032;28;1156;-65
2023/10/05 08:19:05;;;;;;;;;;;21.00;67.90;;;;;;5020746;28;1358;-65
2023/10/05 08:21:31;;;;;;;;;;;21.00;68.00;;;;;;5020978;28;1278;-65
2023/10/05 08:23:56;;;;;;;;;;;21.10;68.00;;;;;;5021315;28;1902;-65
2023/10/05 08:26:22;;;;;;;;;;;21.10;68.10;;;;;;5024815;28;1752;-65
2023/10/05 08:28:49;;;;;;;;;;;21.10;68.10;;;;;;5020442;28;1473;-65
2023/10/05 08:31:22;;;;;;;;;;;21.10;68.20;;;;;;5022764;28;1452;-65
2023/10/05 08:33:54;;;;;;;;;;;21.10;68.20;;;;;;5023816;28;1516;-65
2023/10/05 08:36:20;;;;;;;;;;;21.10;68.30;;;;;;5022144;28;1445;-66
2023/10/05 08:38:49;;;;;;;;;;;21.10;68.40;;;;;;5022728;28;2058;-65
2023/10/05 08:41:31;;;;;;;;;;;21.10;68.40;;;;;;5023092;28;1367;-65
2023/10/05 08:44:00;;;;;;;;;;;21.10;68.40;;;;;;5018706;28;1956;-66
2023/10/05 08:46:26;;;;;;;;;;;21.10;68.50;;;;;;5022236;28;1470;-65
2023/10/05 08:48:52;;;;;;;;;;;21.10;69.30;;;;;;5022633;28;1431;-65
2023/10/05 08:51:17;;;;;;;;;;;21.10;69.30;;;;;;5007284;28;1479;-66
2023/10/05 08:53:48;;;;;;;;;;;21.10;69.10;;;;;;4986710;28;1582;-65
2023/10/05 08:56:15;;;;;;;;;;;21.10;69.00;;;;;;5023646;28;1516;-65
2023/10/05 08:58:45;;;;;;;;;;;21.10;69.00;;;;;;5021433;28;1440;-65
2023/10/05 09:01:30;;;;;;;;;;;21.20;69.10;;;;;;5021513;28;1357;-65
2023/10/05 09:06:33;;;;;;;;;;;21.20;69.20;;;;;;5020632;28;1315;-65
2023/10/05 09:11:33;;;;;;;;;;;21.20;69.80;;;;;;5020550;28;1428;-65
2023/10/05 09:14:08;;;;;;;;;;;21.20;69.80;;;;;;5019743;28;1390;-65
2023/10/05 09:16:41;;;;;;;;;;;21.20;69.70;;;;;;5020647;28;1251;-65
2023/10/05 09:19:25;;;;;;;;;;;21.30;69.70;;;;;;5021105;28;1357;-65
2023/10/05 09:21:51;;;;;;;;;;;21.30;69.70;;;;;;5020359;28;1314;-65
2023/10/05 09:24:22;;;;;;;;;;;21.30;69.40;;;;;;5021682;28;1902;-65
2023/10/05 09:26:55;;;;;;;;;;;21.30;69.50;;;;;;5019577;28;1437;-65
2023/10/05 09:29:21;;;;;;;;;;;21.30;69.50;;;;;;5020609;28;1682;-65
2023/10/05 09:31:58;;;;;;;;;;;21.20;69.40;;;;;;5024825;28;1311;-65
2023/10/05 09:34:44;;;;;;;;;;;21.20;69.60;;;;;;5022404;28;1406;-65
2023/10/05 09:37:10;;;;;;;;;;;21.20;70.10;;;;;;5005191;28;1286;-65
2023/10/05 09:39:43;;;;;;;;;;;21.20;70.20;;;;;;5021602;28;1455;-65
2023/10/05 09:42:11;;;;;;;;;;;21.30;70.20;;;;;;5025737;28;1567;-65
2023/10/05 09:44:36;;;;;;;;;;;21.30;70.50;;;;;;5023144;28;2004;-64
2023/10/05 09:47:02;;;;;;;;;;;21.30;71.30;;;;;;5023706;28;1268;-65
2023/10/05 09:49:29;;;;;;;;;;;21.30;70.40;;;;;;5007934;28;1330;-65
2023/10/05 09:51:54;;;;;;;;;;;21.30;70.30;;;;;;5022269;28;1307;-65
2023/10/05 09:54:22;;;;;;;;;;;21.30;70.20;;;;;;5022249;28;1785;-65
2023/10/05 09:56:48;;;;;;;;;;;21.40;70.20;;;;;;5023634;28;1335;-65
2023/10/05 09:59:15;;;;;;;;;;;21.40;70.10;;;;;;5025343;28;1422;-65
2023/10/05 10:01:42;;;;;;;;;;;21.40;70.20;;;;;;5022807;28;1403;-65
2023/10/05 10:04:08;;;;;;;;;;;21.40;70.20;;;;;;5020957;28;1895;-65
2023/10/05 10:06:35;;;;;;;;;;;21.40;70.30;;;;;;5007318;28;1626;-65
2023/10/05 10:09:10;;;;;;;;;;;21.40;70.30;;;;;;5009234;28;1354;-65
2023/10/05 10:11:36;;;;;;;;;;;21.30;70.50;;;;;;5015095;28;1249;-65
2023/10/05 10:14:05;;;;;;;;;;;21.40;70.90;;;;;;5009547;28;1308;-65
2023/10/05 10:16:34;;;;;;;;;;;21.40;71.00;;;;;;5024499;28;1448;-65
2023/10/05 10:19:07;;;;;;;;;;;21.40;70.60;;;;;;5022066;28;2158;-65
2023/10/05 10:22:15;;;;;;;;;;;21.30;70.50;;;;;;5021708;28;1326;-65
2023/10/05 10:24:34;;;;;;;;;;;21.40;70.50;;;;;;5020363;28;1962;-64
2023/10/05 10:27:11;;;;;;;;;;;21.40;70.80;;;;;;5023181;28;1596;-65
2023/10/05 10:29:55;;;;;;;;;;;21.40;70.90;;;;;;5022654;28;1383;-65
2023/10/05 10:32:31;;;;;;;;;;;21.40;70.70;;;;;;5025065;28;1342;-65
2023/10/05 10:35:26;;;;;;;;;;;21.40;70.90;;;;;;5004198;28;1547;-65
2023/10/05 10:37:54;;;;;;;;;;;21.40;70.90;;;;;;5022729;28;1496;-65
2023/10/05 10:42:53;;;;;;;;;;;21.40;71.00;;;;;;5022199;28;1266;-65
2023/10/05 10:45:28;;;;;;;;;;;21.40;71.00;;;;;;5024320;28;1976;-65
2023/10/05 10:47:54;;;;;;;;;;;21.40;71.00;;;;;;5023307;28;1363;-65
2023/10/05 10:50:37;;;;;;;;;;;21.30;71.00;;;;;;5008577;28;1401;-65
2023/10/05 10:53:12;;;;;;;;;;;21.40;71.20;;;;;;5020565;28;1281;-65
2023/10/05 10:55:39;;;;;;;;;;;21.40;71.20;;;;;;5024544;28;1985;-65
2023/10/05 10:58:08;;;;;;;;;;;21.40;71.30;;;;;;5013459;28;1380;-65
2023/10/05 11:03:11;;;;;;;;;;;21.40;71.30;;;;;;5022211;28;1423;-65
2023/10/05 11:05:39;;;;;;;;;;;21.40;71.20;;;;;;5021033;28;1910;-65
2023/10/05 11:08:07;;;;;;;;;;;21.40;71.10;;;;;;5003181;28;1265;-65
2023/10/05 11:10:32;;;;;;;;;;;21.40;71.10;;;;;;5025796;28;1236;-64
2023/10/05 11:13:14;;;;;;;;;;;21.40;71.30;;;;;;5009481;28;1303;-65
2023/10/05 11:16:09;;;;;;;;;;;21.40;71.20;;;;;;5024019;28;1506;-65
2023/10/05 11:18:35;;;;;;;;;;;21.40;71.80;;;;;;5003713;28;1323;-65
2023/10/05 11:21:05;;;;;;;;;;;21.40;71.10;;;;;;5025993;28;1430;-65
2023/10/05 11:23:41;;;;;;;;;;;21.30;71.10;;;;;;5023526;28;1372;-65
2023/10/05 11:26:19;;;;;;;;;;;21.40;72.00;;;;;;5021151;28;1355;-65
2023/10/05 11:28:52;;;;;;;;;;;21.40;72.20;;;;;;5021231;28;1598;-65
2023/10/05 11:31:23;;;;;;;;;;;21.40;72.80;;;;;;5021843;28;1390;-64
2023/10/05 11:33:49;;;;;;;;;;;21.40;72.90;;;;;;5021449;28;1391;-64
2023/10/05 11:36:21;;;;;;;;;;;21.50;72.90;;;;;;5021407;28;1430;-65
2023/10/05 11:38:48;;;;;;;;;;;21.40;72.80;;;;;;5020475;28;1687;-64
2023/10/05 11:41:16;;;;;;;;;;;21.50;73.00;;;;;;5019322;28;1912;-64
2023/10/05 11:43:44;;;;;;;;;;;21.50;72.70;;;;;;5023941;28;1441;-64
2023/10/05 11:46:17;;;;;;;;;;;21.50;72.30;;;;;;5023795;28;1421;-64
2023/10/05 11:48:48;;;;;;;;;;;21.50;72.30;;;;;;5021736;28;1447;-65
2023/10/05 11:51:19;;;;;;;;;;;21.40;72.70;;;;;;5023372;28;1349;-65
2023/10/05 11:53:45;;;;;;;;;;;21.50;72.90;;;;;;5018449;28;1477;-64
2023/10/05 11:56:10;;;;;;;;;;;21.50;72.90;;;;;;5022963;28;1338;-65
2023/10/05 11:58:37;;;;;;;;;;;21.50;72.50;;;;;;5019151;28;1283;-64
2023/10/05 12:01:03;;;;;;;;;;;21.50;72.00;;;;;;5019731;28;1843;-66
2023/10/05 12:03:30;;;;;;;;;;;21.50;72.10;;;;;;5022224;28;1359;-66
2023/10/05 12:06:00;;;;;;;;;;;21.50;71.70;;;;;;5024679;28;1985;-66
2023/10/05 12:08:29;;;;;;;;;;;21.40;70.40;;;;;;5025788;28;1733;-66
2023/10/05 12:10:59;;;;;;;;;;;21.30;69.50;;;;;;5007368;28;1400;-66
2023/10/05 12:13:25;;;;;;;;;;;21.30;69.20;;;;;;5023153;28;1506;-66
2023/10/05 12:15:51;;;;;;;;;;;21.30;68.50;;;;;;5024897;28;1371;-66
2023/10/05 12:18:17;;;;;;;;;;;21.30;68.40;;;;;;5025493;28;1567;-66
2023/10/05 12:20:42;;;;;;;;;;;21.20;67.90;;;;;;5023830;28;1471;-67
2023/10/05 12:23:10;;;;;;;;;;;21.20;68.00;;;;;;5021221;28;1238;-67
2023/10/05 12:25:36;;;;;;;;;;;21.20;67.80;;;;;;5020104;28;1977;-66
2023/10/05 12:28:02;;;;;;;;;;;21.10;67.60;;;;;;5020693;28;1326;-66
2023/10/05 12:30:30;;;;;;;;;;;21.10;67.40;;;;;;5021151;28;1536;-66
2023/10/05 12:32:56;;;;;;;;;;;21.10;67.40;;;;;;5019539;28;2154;-67
2023/10/05 12:35:23;;;;;;;;;;;21.10;67.30;;;;;;5023578;28;1430;-67
2023/10/05 12:37:49;;;;;;;;;;;21.00;67.20;;;;;;5026944;28;1605;-67
2023/10/05 12:40:31;;;;;;;;;;;21.10;67.10;;;;;;5022322;28;1201;-66
2023/10/05 12:42:58;;;;;;;;;;;21.00;66.80;;;;;;5022153;28;1294;-68
2023/10/05 12:45:24;;;;;;;;;;;21.00;66.90;;;;;;5013549;28;1966;-66
2023/10/05 12:47:55;;;;;;;;;;;21.00;66.90;;;;;;5022909;28;1364;-68
2023/10/05 12:50:21;;;;;;;;;;;21.00;66.80;;;;;;5022641;28;1305;-67
2023/10/05 12:52:50;;;;;;;;;;;21.00;66.80;;;;;;5009561;28;1463;-67
2023/10/05 12:55:19;;;;;;;;;;;21.00;66.70;;;;;;5024281;28;1404;-68
2023/10/05 12:57:46;;;;;;;;;;;20.90;66.60;;;;;;5022652;28;1437;-68
2023/10/05 13:00:19;;;;;;;;;;;20.90;66.60;;;;;;5021230;28;1360;-66
2023/10/05 13:02:54;;;;;;;;;;;21.00;66.70;;;;;;5020778;28;1397;-66
2023/10/05 13:05:21;;;;;;;;;;;20.90;66.70;;;;;;5023860;28;1941;-65
2023/10/05 13:07:50;;;;;;;;;;;20.90;66.70;;;;;;5024307;28;1448;-66
2023/10/05 13:10:30;;;;;;;;;;;20.90;66.60;;;;;;5022532;28;1373;-65
2023/10/05 13:13:10;;;;;;;;;;;20.90;66.70;;;;;;5019062;28;1488;-66
2023/10/05 13:15:36;;;;;;;;;;;20.90;66.60;;;;;;5021997;28;1454;-66
2023/10/05 13:18:15;;;;;;;;;;;20.90;66.50;;;;;;5027700;28;1415;-66
2023/10/05 13:20:42;;;;;;;;;;;20.90;66.60;;;;;;5026012;28;1423;-66
2023/10/05 13:23:10;;;;;;;;;;;20.90;66.60;;;;;;5029373;28;1374;-67
2023/10/05 13:25:36;;;;;;;;;;;20.90;66.50;;;;;;5023336;28;1967;-66
2023/10/05 13:28:03;;;;;;;;;;;20.90;66.60;;;;;;5023474;28;1706;-67
2023/10/05 13:30:40;;;;;;;;;;;20.90;66.50;;;;;;5027247;28;1524;-66
2023/10/05 13:33:13;;;;;;;;;;;20.90;66.60;;;;;;5029128;28;1460;-67
2023/10/05 13:35:41;;;;;;;;;;;20.90;66.50;;;;;;5030908;28;1505;-66
2023/10/05 13:38:12;;;;;;;;;;;20.90;66.70;;;;;;5025252;28;1476;-67
2023/10/05 13:40:57;;;;;;;;;;;20.90;66.80;;;;;;5025286;28;1279;-67
2023/10/05 13:43:23;;;;;;;;;;;20.90;66.90;;;;;;5012288;28;1739;-66
2023/10/05 13:45:51;;;;;;;;;;;20.90;67.10;;;;;;5024991;28;1910;-66
2023/10/05 13:48:17;;;;;;;;;;;20.90;67.10;;;;;;5023448;28;1731;-66
2023/10/05 13:50:45;;;;;;;;;;;20.90;67.10;;;;;;5025691;28;1393;-66
2023/10/05 13:53:11;;;;;;;;;;;20.80;67.30;;;;;;5026998;28;1500;-66
2023/10/05 13:55:36;;;;;;;;;;;20.90;67.10;;;;;;5023853;28;1346;-67
2023/10/05 13:58:02;;;;;;;;;;;20.80;67.10;;;;;;5023582;28;1295;-65
2023/10/05 14:00:29;;;;;;;;;;;20.80;67.10;;;;;;5025512;28;1659;-65
2023/10/05 14:02:56;;;;;;;;;;;20.80;66.80;;;;;;5015172;28;4660;-65
2023/10/05 14:05:22;;;;;;;;;;;20.80;66.70;;;;;;5016906;28;4514;-65
2023/10/05 14:07:51;;;;;;;;;;;20.80;66.70;;;;;;5014164;28;4475;-65
2023/10/05 14:10:18;;;;;;;;;;;20.80;66.80;;;;;;5014758;28;4050;-65
2023/10/05 14:12:44;;;;;;;;;;;20.80;66.90;;;;;;5017970;28;4087;-65
2023/10/05 14:15:10;;;;;;;;;;;20.80;67.00;;;;;;5017454;28;4330;-65
2023/10/05 14:17:37;;;;;;;;;;;20.80;67.10;;;;;;5002837;28;4770;-65
2023/10/05 14:20:05;;;;;;;;;;;20.80;67.20;;;;;;4995067;28;4360;-65
2023/10/05 14:22:33;;;;;;;;;;;20.80;67.30;;;;;;5023928;28;1450;-65
2023/10/05 14:25:07;;;;;;;;;;;20.80;67.40;;;;;;5019232;28;1922;-65
2023/10/05 14:27:34;;;;;;;;;;;20.80;67.50;;;;;;5024103;28;1858;-64
2023/10/05 14:30:06;;;;;;;;;;;20.80;67.60;;;;;;5023199;28;1543;-65
2023/10/05 14:32:36;;;;;;;;;;;20.80;67.70;;;;;;5024154;28;1478;-64
2023/10/05 14:35:09;;;;;;;;;;;20.70;67.70;;;;;;5020468;28;1054;-65
2023/10/05 14:37:40;;;;;;;;;;;20.80;67.80;;;;;;5023363;28;1310;-64
2023/10/05 14:40:05;;;;;;;;;;;20.80;67.90;;;;;;5020754;28;1242;-66
2023/10/05 14:42:31;;;;;;;;;;;20.70;68.70;;;;;;5022839;28;1368;-66
2023/10/05 14:44:56;;;;;;;;;;;20.80;68.00;;;;;;5026899;28;1967;-66
2023/10/05 14:47:22;;;;;;;;;;;20.80;68.10;;;;;;5010524;28;1637;-65
2023/10/05 14:49:48;;;;;;;;;;;20.70;68.10;;;;;;5024624;28;1350;-64
2023/10/05 14:52:13;;;;;;;;;;;20.70;68.10;;;;;;5012481;28;4503;-64
2023/10/05 14:54:39;;;;;;;;;;;20.70;68.10;;;;;;4992698;28;4692;-64
2023/10/05 14:57:06;;;;;;;;;;;20.80;68.30;;;;;;5009234;28;4572;-65
2023/10/05 14:59:31;;;;;;;;;;;20.80;68.30;;;;;;4997145;28;4804;-64
2023/10/05 15:01:58;;;;;;;;;;;20.70;68.20;;;;;;5017436;28;4109;-64
2023/10/05 15:04:24;;;;;;;;;;;20.80;68.40;;;;;;5001513;28;4834;-65
2023/10/05 15:06:49;;;;;;;;;;;20.80;68.40;;;;;;5020495;28;4315;-65
2023/10/05 15:09:20;;;;;;;;;;;20.80;68.40;;;;;;5025763;28;1359;-66
2023/10/05 15:11:46;;;;;;;;;;;20.70;68.40;;;;;;5023750;28;1554;-65
2023/10/05 15:14:12;;;;;;;;;;;20.70;68.40;;;;;;5023516;28;1302;-66
2023/10/05 15:16:38;;;;;;;;;;;20.70;68.50;;;;;;5012597;28;4229;-64
2023/10/05 15:19:05;;;;;;;;;;;20.80;68.50;;;;;;5021098;28;1402;-65
2023/10/05 15:21:31;;;;;;;;;;;20.80;68.60;;;;;;5023523;28;962;-66
2023/10/05 15:23:57;;;;;;;;;;;20.70;68.50;;;;;;5026088;28;1910;-65